Terminal Aerodrome Forecast
Issued by NWS Upton, NY

Home | Current Version | Previous Version | Text Only | Print | Product List | Glossary On
Versions: 1 2 3 4 5 6 7 8 9 10 11 12 13 14 15 16 17 18 19 20 21 22 23 24 25 26 27 28 29
776
FTUS41 KOKX 011534 AAB
TAFJFK
TAF AMD
KJFK 011534Z 0116/0218 11012KT 5SM -RA SCT015 BKN030 OVC040
      TEMPO 0116/0118 BKN015 BKN030 OVC040
     FM011800 10012KT 2SM -RA BR OVC015
     FM012100 08008KT 2SM -SHRA BR OVC008
     FM020300 06005KT 2SM -SHRADZ BR OVC004
     FM021500 VRB05KT 3SM -SHRADZ BR OVC010=

USA.gov is the U.S. government's official web portal to all federal, state and local government web resources and services.